Tafton-Wrightville, Arkansas
Current Conditions -  °F | °C
As of 6:53 PM on Saturday 22 Nov 2014 (Local Time) from KLIT Reporting Station
Overcast Overcast  
Wind Chill: 57°   Ceiling: 4500
Heat Index: 57°   Visibility: 10mi
Dew Point: 50°   Wind: 7mph
Humidity: 77%   Direction: 130°SE
Pressure: 29.98"   Gusts: NA
Location:  34.6196°N, 92.2211°W
Report Text: KLIT 230053Z 13006KT 10SM BKN045 BKN080 OVC250 14/10 A2998 RMK AO2 SLP155 T01390100
Loading
Personal Weather Stations






























Interactive Weather Map New forecast layout! Learn more

10-Day Weather Forecast

Advertisements
Track Severe Weather on mobile